Delacroix, Louisiana
Current Conditions -  °F | °C
As of 1:55 PM on Saturday 25 Oct 2014 (Local Time) from KNBG Reporting Station
Clear Clear  
Wind Chill: 79°   Ceiling: Unl
Heat Index: 79°   Visibility: 10mi
Dew Point: 51°   Wind: 6mph
Humidity: 38%   Direction: 30°NNE
Pressure: 30.1"   Gusts: NA
Location:  29.8369°N, 89.7702°W
Report Text: KNBG 251855Z 03005KT 10SM CLR 26/11 A3010 RMK AO2 SLP191 T02610106 $
Loading
Personal Weather Stations






























Interactive Weather Map
Tropical Storm Tracking
New forecast layout! Learn more

10-Day Weather Forecast

Advertisements
Track Severe Weather on mobile